createdAt,value
2023-01-28T00:02:32.063Z,6.60
2023-01-28T00:05:05.163Z,9.20
2023-01-28T00:07:37.648Z,11.40
2023-01-28T00:10:12.029Z,11.90
2023-01-28T00:12:44.640Z,8.80
2023-01-28T00:15:17.495Z,8.70
2023-01-28T00:17:49.977Z,10.80
2023-01-28T00:20:22.655Z,9.80
2023-01-28T00:22:55.060Z,8.50
2023-01-28T00:25:27.578Z,9.50
2023-01-28T00:28:00.269Z,7.20
2023-01-28T00:30:32.768Z,19.70
2023-01-28T00:33:05.279Z,23.50
2023-01-28T00:35:37.721Z,18.50
2023-01-28T00:38:10.872Z,10.00
2023-01-28T00:40:43.254Z,14.80
2023-01-28T00:43:16.005Z,31.00
2023-01-28T00:45:50.341Z,25.10
2023-01-28T00:48:23.044Z,9.30
2023-01-28T00:50:55.537Z,6.70
2023-01-28T00:53:28.245Z,11.00
2023-01-28T00:56:00.689Z,11.00
2023-01-28T00:58:33.402Z,9.80
2023-01-28T01:01:12.527Z,6.80
2023-01-28T01:03:45.395Z,6.80
2023-01-28T01:06:18.716Z,5.50
2023-01-28T01:08:51.311Z,19.80
2023-01-28T01:11:24.940Z,13.30
2023-01-28T01:13:59.250Z,7.20
2023-01-28T01:16:33.594Z,10.50
2023-01-28T01:19:06.371Z,5.50
2023-01-28T01:21:38.703Z,6.60
2023-01-28T01:24:13.022Z,6.80
2023-01-28T01:26:45.747Z,6.00
2023-01-28T01:29:18.413Z,6.90
2023-01-28T01:31:50.905Z,6.00
2023-01-28T01:34:23.871Z,5.30
2023-01-28T01:36:56.300Z,5.80
2023-01-28T01:39:28.646Z,5.20
2023-01-28T01:42:01.899Z,5.80
2023-01-28T01:44:57.066Z,7.50
2023-01-28T01:47:37.337Z,5.20
2023-01-28T01:50:17.974Z,6.10
2023-01-28T01:52:56.103Z,6.20
2023-01-28T01:55:32.559Z,5.70
2023-01-28T01:58:08.133Z,7.00
2023-01-28T02:00:41.711Z,6.90
2023-01-28T02:03:15.313Z,7.10
2023-01-28T02:05:50.693Z,5.70
2023-01-28T02:08:23.158Z,5.90
2023-01-28T02:11:02.242Z,7.70
2023-01-28T02:13:39.767Z,6.20
2023-01-28T02:16:13.946Z,5.40
2023-01-28T02:18:46.474Z,6.30
2023-01-28T02:21:57.510Z,7.00
2023-01-28T02:24:53.299Z,7.30
2023-01-28T02:27:32.958Z,10.50
2023-01-28T02:30:12.363Z,8.00
2023-01-28T02:32:54.649Z,6.40
2023-01-28T02:35:34.444Z,5.50
2023-01-28T02:38:11.109Z,6.60
2023-01-28T02:41:06.580Z,4.90
2023-01-28T02:43:40.857Z,6.00
2023-01-28T02:46:38.787Z,7.60
2023-01-28T02:49:16.112Z,6.10
2023-01-28T02:52:02.385Z,7.30
2023-01-28T02:54:43.435Z,7.40
2023-01-28T02:57:26.595Z,6.70
2023-01-28T03:00:04.834Z,5.70
2023-01-28T03:02:44.510Z,6.20
2023-01-28T03:05:22.751Z,5.90
2023-01-28T03:07:55.895Z,6.10
2023-01-28T03:10:29.874Z,6.50
2023-01-28T03:13:20.394Z,6.90
2023-01-28T03:16:10.870Z,6.30
2023-01-28T03:19:07.436Z,6.80
2023-01-28T03:22:01.856Z,6.60
2023-01-28T03:25:01.938Z,6.30
2023-01-28T03:27:58.948Z,6.70
2023-01-28T03:30:56.604Z,7.90
2023-01-28T03:33:58.486Z,15.00
2023-01-28T03:36:50.997Z,9.00
2023-01-28T03:39:40.539Z,8.80
2023-01-28T03:42:18.739Z,6.00
2023-01-28T03:44:59.211Z,7.30
2023-01-28T03:47:33.192Z,6.70
2023-01-28T03:50:07.887Z,7.20
2023-01-28T03:52:47.199Z,5.80
2023-01-28T03:55:33.472Z,6.00
2023-01-28T03:58:06.331Z,6.50
2023-01-28T04:00:42.514Z,5.80
2023-01-28T04:03:17.728Z,8.70
2023-01-28T04:06:04.440Z,7.00
2023-01-28T04:08:59.735Z,6.10
2023-01-28T04:11:35.227Z,6.50
2023-01-28T04:14:09.707Z,6.20
2023-01-28T04:16:55.034Z,6.50
2023-01-28T04:19:31.820Z,6.90
2023-01-28T04:22:04.989Z,6.10
2023-01-28T04:24:37.633Z,6.00
2023-01-28T04:27:10.455Z,7.60
2023-01-28T04:29:42.882Z,5.30
2023-01-28T04:32:35.188Z,5.80
2023-01-28T04:35:30.364Z,5.60
2023-01-28T04:41:07.057Z,6.30
2023-01-28T04:43:40.831Z,5.50
2023-01-28T04:46:25.442Z,6.80
2023-01-28T04:49:07.180Z,6.20
2023-01-28T04:51:51.866Z,6.90
2023-01-28T04:54:24.410Z,6.80
2023-01-28T04:56:58.755Z,7.40
2023-01-28T04:59:31.179Z,8.30
2023-01-28T05:02:03.960Z,7.50
2023-01-28T05:04:37.630Z,6.40
2023-01-28T05:07:10.412Z,5.60
2023-01-28T05:09:43.322Z,7.90
2023-01-28T05:12:15.937Z,6.70
2023-01-28T05:14:49.297Z,7.00
2023-01-28T05:17:25.157Z,8.10
2023-01-28T05:19:57.779Z,6.90
2023-01-28T05:22:33.287Z,7.60
2023-01-28T05:25:21.557Z,6.40
2023-01-28T05:27:54.692Z,6.20
2023-01-28T05:30:27.153Z,7.00
2023-01-28T05:33:00.168Z,9.70
2023-01-28T05:35:32.729Z,10.60
2023-01-28T05:38:06.924Z,8.00
2023-01-28T05:40:39.307Z,7.70
2023-01-28T05:43:12.352Z,9.80
2023-01-28T05:45:50.866Z,13.70
2023-01-28T05:48:36.606Z,14.80
2023-01-28T05:51:27.944Z,11.80
2023-01-28T05:54:03.539Z,11.60
2023-01-28T05:56:36.672Z,33.10
2023-01-28T05:59:10.509Z,25.80
2023-01-28T06:01:43.942Z,22.10
2023-01-28T06:04:18.927Z,51.00
2023-01-28T06:09:22.495Z,18.80
2023-01-28T06:11:56.201Z,17.00
2023-01-28T06:14:29.475Z,12.70
2023-01-28T06:17:37.096Z,9.60
2023-01-28T06:20:21.011Z,7.00
2023-01-28T06:22:55.248Z,10.00
2023-01-28T06:25:27.854Z,8.90
2023-01-28T06:28:01.534Z,10.40
2023-01-28T06:30:33.935Z,20.00
2023-01-28T06:33:06.714Z,17.70
2023-01-28T06:35:39.782Z,13.50
2023-01-28T06:38:12.877Z,12.30
2023-01-28T06:40:45.321Z,12.80
2023-01-28T06:43:18.328Z,9.90
2023-01-28T06:45:50.802Z,12.30
2023-01-28T06:48:23.312Z,11.70
2023-01-28T06:50:56.248Z,13.20
2023-01-28T06:53:28.718Z,10.60
2023-01-28T06:56:01.221Z,8.30
2023-01-28T06:58:33.791Z,10.00
2023-01-28T07:01:06.573Z,12.50
2023-01-28T07:03:39.222Z,10.80
2023-01-28T07:06:11.844Z,10.30
2023-01-28T07:08:44.225Z,13.10
2023-01-28T07:11:16.684Z,11.10
2023-01-28T07:13:49.146Z,9.70
2023-01-28T07:16:21.802Z,12.40
2023-01-28T07:18:54.174Z,11.30
2023-01-28T07:21:26.605Z,10.10
2023-01-28T07:23:59.172Z,12.40
2023-01-28T07:26:31.602Z,19.60
2023-01-28T07:29:04.039Z,18.10
2023-01-28T07:31:36.503Z,13.50
2023-01-28T07:34:10.234Z,11.30
2023-01-28T07:36:42.584Z,11.50
2023-01-28T07:39:14.974Z,19.30
2023-01-28T07:41:47.507Z,22.50
2023-01-28T07:44:37.749Z,15.80
2023-01-28T07:47:11.736Z,15.10
2023-01-28T07:49:44.312Z,20.00
2023-01-28T07:52:16.795Z,22.70
2023-01-28T07:54:49.120Z,17.20
2023-01-28T07:57:23.600Z,116.70
2023-01-28T07:59:56.026Z,79.50
2023-01-28T08:02:29.484Z,76.10
2023-01-28T08:05:02.049Z,86.10
2023-01-28T08:07:34.494Z,164.60
2023-01-28T08:10:10.312Z,58.60
2023-01-28T08:12:42.787Z,26.50
2023-01-28T08:15:15.379Z,13.10
2023-01-28T08:17:47.856Z,12.20
2023-01-28T08:20:20.655Z,23.90
2023-01-28T08:22:53.089Z,25.30
2023-01-28T08:25:25.443Z,13.80
2023-01-28T08:27:57.777Z,30.20
2023-01-28T08:30:30.249Z,22.90
2023-01-28T08:33:03.025Z,75.00
2023-01-28T08:35:36.075Z,44.50
2023-01-28T08:38:09.345Z,23.40
2023-01-28T08:40:42.092Z,18.50
2023-01-28T08:43:14.558Z,19.20
2023-01-28T08:45:46.936Z,22.60
2023-01-28T08:48:20.659Z,16.70
2023-01-28T08:50:53.231Z,16.60
2023-01-28T08:53:25.752Z,17.30
2023-01-28T08:55:58.108Z,18.00
2023-01-28T08:58:30.553Z,18.90
2023-01-28T09:01:07.301Z,19.10
2023-01-28T09:03:39.718Z,64.30
2023-01-28T09:06:12.152Z,58.30
2023-01-28T09:08:44.589Z,33.70
2023-01-28T09:11:16.966Z,24.60
2023-01-28T09:13:49.400Z,16.60
2023-01-28T09:16:22.169Z,14.20
2023-01-28T09:18:54.629Z,14.20
2023-01-28T09:21:27.074Z,15.50
2023-01-28T09:23:59.414Z,66.50
2023-01-28T09:26:34.577Z,107.80
2023-01-28T09:31:37.933Z,118.30
2023-01-28T09:34:10.639Z,104.70
2023-01-28T09:36:43.006Z,56.00
2023-01-28T09:39:15.366Z,32.50
2023-01-28T09:41:57.816Z,21.70
2023-01-28T09:44:41.197Z,29.30
2023-01-28T09:47:23.785Z,19.20
2023-01-28T09:49:59.420Z,46.30
2023-01-28T09:52:35.793Z,68.20
2023-01-28T09:55:16.878Z,148.10
2023-01-28T09:57:53.849Z,114.10
2023-01-28T10:00:31.101Z,45.30
2023-01-28T10:03:15.816Z,35.40
2023-01-28T10:05:58.424Z,27.30
2023-01-28T10:08:50.654Z,11.90
2023-01-28T10:11:35.809Z,11.80
2023-01-28T10:14:14.958Z,39.90
2023-01-28T10:16:52.130Z,30.10
2023-01-28T10:19:28.337Z,49.10
2023-01-28T10:22:04.948Z,61.20
2023-01-28T10:24:44.439Z,29.90
2023-01-28T10:27:20.614Z,22.90
2023-01-28T10:29:55.555Z,39.70
2023-01-28T10:32:31.817Z,60.70
2023-01-28T10:35:04.623Z,53.80
2023-01-28T10:37:39.352Z,31.90
2023-01-28T10:40:17.675Z,28.70
2023-01-28T10:42:50.283Z,118.30
2023-01-28T10:45:26.894Z,50.60
2023-01-28T10:48:08.444Z,59.80
2023-01-28T10:50:51.178Z,41.80
2023-01-28T10:53:34.871Z,35.00
2023-01-28T10:56:10.344Z,49.90
2023-01-28T10:58:58.519Z,30.50
2023-01-28T11:01:44.696Z,32.90
2023-01-28T11:04:23.852Z,41.90
2023-01-28T11:06:58.848Z,32.80
2023-01-28T11:09:33.287Z,35.20
2023-01-28T11:12:21.138Z,34.80
2023-01-28T11:14:58.430Z,53.10
2023-01-28T11:17:33.125Z,46.30
2023-01-28T11:20:20.416Z,55.30
2023-01-28T11:22:53.997Z,61.20
2023-01-28T11:25:32.340Z,54.10
2023-01-28T11:28:07.527Z,33.30
2023-01-28T11:33:19.259Z,24.90
2023-01-28T11:36:06.297Z,18.00
2023-01-28T11:38:48.456Z,15.10
2023-01-28T11:41:25.538Z,17.70
2023-01-28T11:43:58.960Z,77.10
2023-01-28T11:46:53.100Z,50.10
2023-01-28T11:49:35.699Z,36.10
2023-01-28T11:52:19.631Z,41.40
2023-01-28T11:55:04.038Z,113.20
2023-01-28T11:57:47.064Z,96.80
2023-01-28T12:00:39.923Z,64.30
2023-01-28T12:03:32.152Z,63.20
2023-01-28T12:06:23.413Z,67.40
2023-01-28T12:09:07.567Z,64.50
2023-01-28T12:12:11.295Z,66.60
2023-01-28T12:15:08.307Z,70.30
2023-01-28T12:17:56.219Z,70.30
2023-01-28T12:20:33.877Z,60.60
2023-01-28T12:23:26.447Z,57.20
2023-01-28T12:26:11.128Z,67.10
2023-01-28T12:29:02.637Z,42.60
2023-01-28T12:31:58.936Z,28.70
2023-01-28T12:34:57.358Z,26.00
2023-01-28T12:37:43.384Z,22.50
2023-01-28T12:40:34.437Z,31.50
2023-01-28T12:43:13.279Z,41.00
2023-01-28T12:45:51.028Z,50.20
2023-01-28T12:48:28.689Z,34.10
2023-01-28T12:51:06.337Z,47.10
2023-01-28T12:53:44.542Z,33.10
2023-01-28T12:56:21.070Z,27.20
2023-01-28T12:59:00.066Z,23.20
2023-01-28T13:01:43.000Z,24.30
2023-01-28T13:04:26.579Z,17.60
2023-01-28T13:07:04.528Z,21.90
2023-01-28T13:09:40.036Z,36.10
2023-01-28T13:12:14.706Z,29.20
2023-01-28T13:14:47.757Z,30.10
2023-01-28T13:17:30.479Z,28.50
2023-01-28T13:20:14.752Z,73.30
2023-01-28T13:22:47.369Z,172.60
2023-01-28T13:25:24.966Z,133.40
2023-01-28T13:28:02.895Z,61.90
2023-01-28T13:30:48.162Z,50.70
2023-01-28T13:33:33.079Z,55.90
2023-01-28T13:36:25.175Z,133.40
2023-01-28T13:39:15.779Z,163.60
2023-01-28T13:41:51.171Z,123.60
2023-01-28T13:44:31.433Z,89.00
2023-01-28T13:47:17.615Z,48.90
2023-01-28T13:49:52.143Z,34.10
2023-01-28T13:52:29.313Z,27.30
2023-01-28T13:55:06.596Z,14.10
2023-01-28T13:58:14.419Z,15.40
2023-01-28T14:01:10.791Z,16.40
2023-01-28T14:04:31.522Z,25.30
2023-01-28T14:07:17.425Z,14.40
2023-01-28T14:10:04.780Z,8.60
2023-01-28T14:13:01.117Z,7.50
2023-01-28T14:16:04.735Z,9.70
2023-01-28T14:18:40.446Z,10.50
2023-01-28T14:21:15.427Z,12.50
2023-01-28T14:23:54.024Z,13.20
2023-01-28T14:26:47.990Z,15.80
2023-01-28T14:29:34.114Z,12.00
2023-01-28T14:32:12.590Z,12.90
2023-01-28T14:34:46.440Z,10.70
2023-01-28T14:37:21.356Z,9.30
2023-01-28T14:39:57.655Z,15.30
2023-01-28T14:42:32.275Z,25.50
2023-01-28T14:45:22.964Z,59.10
2023-01-28T14:48:18.424Z,66.10
2023-01-28T14:51:10.979Z,53.80
2023-01-28T14:54:08.019Z,43.50
2023-01-28T14:56:55.878Z,20.50
2023-01-28T14:59:31.058Z,17.80
2023-01-28T15:02:05.200Z,20.30
2023-01-28T15:04:38.550Z,15.50
2023-01-28T15:07:21.403Z,25.10
2023-01-28T15:10:04.289Z,16.20
2023-01-28T15:12:40.426Z,29.60
2023-01-28T15:15:19.309Z,30.50
2023-01-28T15:17:52.178Z,34.70
2023-01-28T15:20:26.654Z,15.20
2023-01-28T15:22:59.408Z,29.50
2023-01-28T15:25:32.372Z,49.40
2023-01-28T15:28:04.973Z,105.50
2023-01-28T15:30:37.413Z,113.20
2023-01-28T15:33:17.192Z,141.70
2023-01-28T15:35:53.871Z,25.60
2023-01-28T15:38:28.763Z,13.10
2023-01-28T15:41:04.468Z,46.50
2023-01-28T15:43:39.463Z,25.00
2023-01-28T15:46:15.495Z,57.00
2023-01-28T15:48:51.442Z,24.30
2023-01-28T15:51:28.130Z,38.00
2023-01-28T15:54:04.609Z,26.00
2023-01-28T15:56:37.910Z,71.00
2023-01-28T15:59:28.119Z,118.80
2023-01-28T16:02:24.117Z,85.90
2023-01-28T16:05:04.714Z,39.20
2023-01-28T16:07:47.441Z,15.60
2023-01-28T16:10:25.170Z,10.00
2023-01-28T16:13:05.136Z,8.60
2023-01-28T16:15:39.477Z,13.70
2023-01-28T16:18:27.180Z,385.20
2023-01-28T16:21:01.052Z,548.80
2023-01-28T16:23:33.555Z,187.10
2023-01-28T16:26:08.703Z,70.70
2023-01-28T16:28:41.198Z,38.30
2023-01-28T16:31:14.158Z,83.30
2023-01-28T16:33:46.637Z,117.00
2023-01-28T16:36:20.403Z,86.30
2023-01-28T16:38:52.752Z,83.40
2023-01-28T16:41:29.916Z,62.60
2023-01-28T16:44:06.084Z,79.20
2023-01-28T16:46:38.419Z,30.50
2023-01-28T16:49:11.311Z,16.30
2023-01-28T16:51:45.347Z,5.50
2023-01-28T16:54:18.882Z,4.40
2023-01-28T16:56:51.816Z,6.20
2023-01-28T16:59:24.330Z,6.50
2023-01-28T17:01:56.753Z,5.80
2023-01-28T17:04:29.212Z,7.10
2023-01-28T17:07:02.266Z,5.50
2023-01-28T17:09:34.767Z,5.20
2023-01-28T17:12:07.921Z,15.10
2023-01-28T17:14:40.345Z,22.80
2023-01-28T17:17:12.715Z,18.40
2023-01-28T17:19:45.182Z,7.90
2023-01-28T17:22:17.556Z,6.10
2023-01-28T17:24:49.872Z,6.40
2023-01-28T17:27:22.250Z,4.60
2023-01-28T17:29:54.871Z,14.30
2023-01-28T17:32:27.642Z,5.90
2023-01-28T17:35:00.003Z,6.80
2023-01-28T17:37:32.365Z,7.20
2023-01-28T17:40:05.011Z,7.60
2023-01-28T17:42:37.363Z,11.70
2023-01-28T17:45:12.569Z,12.20
2023-01-28T17:47:45.005Z,9.70
2023-01-28T17:50:17.702Z,7.70
2023-01-28T17:52:54.498Z,8.90
2023-01-28T17:55:27.534Z,10.70
2023-01-28T17:57:59.906Z,13.60
2023-01-28T18:00:32.398Z,21.50
2023-01-28T18:03:04.816Z,10.20
2023-01-28T18:05:37.309Z,10.00
2023-01-28T18:08:11.753Z,11.20
2023-01-28T18:10:47.065Z,30.20
2023-01-28T18:15:50.334Z,29.90
2023-01-28T18:18:22.898Z,25.60
2023-01-28T18:21:01.875Z,45.30
2023-01-28T18:23:35.207Z,49.10
2023-01-28T18:26:07.602Z,50.20
2023-01-28T18:28:40.007Z,37.40
2023-01-28T18:31:12.559Z,212.80
2023-01-28T18:33:45.185Z,121.90
2023-01-28T18:36:19.456Z,52.00
2023-01-28T18:38:52.016Z,23.00
2023-01-28T18:41:24.362Z,27.20
2023-01-28T18:43:56.726Z,24.20
2023-01-28T18:46:29.239Z,28.80
2023-01-28T18:49:01.686Z,30.70
2023-01-28T18:51:34.522Z,54.40
2023-01-28T18:54:11.964Z,33.60
2023-01-28T18:56:45.983Z,33.30
2023-01-28T18:59:18.644Z,39.70
2023-01-28T19:01:51.160Z,31.00
2023-01-28T19:04:23.830Z,21.30
2023-01-28T19:06:58.298Z,29.20
2023-01-28T19:09:30.771Z,25.80
2023-01-28T19:12:03.138Z,297.20
2023-01-28T19:14:35.637Z,255.50
2023-01-28T19:17:08.065Z,80.30
2023-01-28T19:19:40.478Z,185.90
2023-01-28T19:22:12.899Z,238.20
2023-01-28T19:24:45.380Z,123.80
2023-01-28T19:27:18.012Z,345.30
2023-01-28T19:29:50.458Z,649.80
2023-01-28T19:32:23.055Z,546.20
2023-01-28T19:34:55.423Z,610.90
2023-01-28T19:37:27.907Z,309.60
2023-01-28T19:40:00.335Z,221.00
2023-01-28T19:42:32.711Z,218.90
2023-01-28T19:45:06.546Z,152.30
2023-01-28T19:47:39.063Z,112.60
2023-01-28T19:50:13.795Z,136.50
2023-01-28T19:52:46.345Z,197.90
2023-01-28T19:55:18.950Z,195.70
2023-01-28T19:57:51.541Z,224.20
2023-01-28T20:00:24.289Z,232.30
2023-01-28T20:02:56.794Z,172.10
2023-01-28T20:05:29.224Z,78.80
2023-01-28T20:08:01.660Z,31.60
2023-01-28T20:10:34.699Z,27.80
2023-01-28T20:13:08.381Z,43.70
2023-01-28T20:15:43.556Z,50.30
2023-01-28T20:18:15.954Z,56.20
2023-01-28T20:20:55.881Z,33.30
2023-01-28T20:23:28.648Z,39.50
2023-01-28T20:26:01.478Z,35.80
2023-01-28T20:28:33.817Z,17.30
2023-01-28T20:31:09.876Z,18.30
2023-01-28T20:33:42.531Z,24.40
2023-01-28T20:36:15.982Z,30.90
2023-01-28T20:38:49.406Z,16.10
2023-01-28T20:41:23.445Z,17.80
2023-01-28T20:43:56.484Z,19.70
2023-01-28T20:46:30.728Z,91.80
2023-01-28T20:49:06.682Z,412.40
2023-01-28T20:51:39.869Z,51.50
2023-01-28T20:54:13.790Z,103.30
2023-01-28T20:56:46.478Z,31.40
2023-01-28T20:59:19.365Z,183.90
2023-01-28T21:01:51.828Z,37.90
2023-01-28T21:04:24.369Z,157.60
2023-01-28T21:06:56.804Z,92.30
2023-01-28T21:09:29.348Z,85.80
2023-01-28T21:12:01.811Z,33.90
2023-01-28T21:14:34.335Z,30.60
2023-01-28T21:17:06.818Z,22.50
2023-01-28T21:19:39.340Z,34.60
2023-01-28T21:22:11.819Z,42.60
2023-01-28T21:24:46.975Z,34.20
2023-01-28T21:29:50.354Z,24.40
2023-01-28T21:32:25.555Z,28.50
2023-01-28T21:34:59.285Z,26.60
2023-01-28T21:37:32.741Z,34.00
2023-01-28T21:40:05.575Z,25.90
2023-01-28T21:42:37.894Z,47.20
2023-01-28T21:45:12.271Z,25.10
2023-01-28T21:47:44.683Z,44.50
2023-01-28T21:50:19.187Z,31.30
2023-01-28T21:52:52.711Z,55.20
2023-01-28T21:55:25.242Z,22.90
2023-01-28T21:58:17.587Z,24.00
2023-01-28T22:00:50.033Z,30.30
2023-01-28T22:03:24.632Z,17.90
2023-01-28T22:05:58.579Z,100.00
2023-01-28T22:08:31.026Z,289.60
2023-01-28T22:11:06.519Z,173.80
2023-01-28T22:13:39.644Z,224.80
2023-01-28T22:16:12.315Z,77.30
2023-01-28T22:18:46.754Z,123.10
2023-01-28T22:21:19.276Z,46.40
2023-01-28T22:23:51.732Z,72.70
2023-01-28T22:26:24.692Z,51.90
2023-01-28T22:28:57.172Z,85.00
2023-01-28T22:31:29.582Z,210.10
2023-01-28T22:34:02.400Z,162.20
2023-01-28T22:36:35.462Z,110.50
2023-01-28T22:39:13.182Z,156.60
2023-01-28T22:41:46.867Z,64.70
2023-01-28T22:44:20.276Z,52.00
2023-01-28T22:46:52.632Z,29.90
2023-01-28T22:49:26.828Z,39.30
2023-01-28T22:51:59.218Z,55.00
2023-01-28T22:54:31.728Z,46.10
2023-01-28T22:57:04.181Z,36.50
2023-01-28T22:59:36.655Z,29.30
2023-01-28T23:02:09.325Z,32.60
2023-01-28T23:04:43.832Z,27.60
2023-01-28T23:07:16.289Z,28.00
2023-01-28T23:09:48.674Z,32.20
2023-01-28T23:12:21.118Z,25.70
2023-01-28T23:15:11.368Z,23.60
2023-01-28T23:18:01.754Z,25.20
2023-01-28T23:20:52.103Z,26.20
2023-01-28T23:23:42.316Z,29.20
2023-01-28T23:26:15.022Z,28.30
2023-01-28T23:28:47.845Z,29.50
2023-01-28T23:31:21.349Z,34.50
2023-01-28T23:33:53.871Z,24.80
2023-01-28T23:36:26.359Z,31.40
2023-01-28T23:38:58.692Z,23.10
2023-01-28T23:41:31.356Z,19.50
2023-01-28T23:44:05.260Z,26.50
2023-01-28T23:46:40.248Z,19.80
2023-01-28T23:49:12.908Z,19.90
2023-01-28T23:51:45.732Z,29.20
2023-01-28T23:54:18.571Z,26.50
2023-01-28T23:56:51.121Z,28.60
2023-01-28T23:59:24.549Z,32.40
